メインページ
METAR-TAF:

METAR-TAF

空港 :

ニアメ, ニジェール

ディオリ・アマニ国際空港

緯度: 13-29N, 経度: 002-10E, 海抜: 223m

現時点の気象観測

当レポートは56分前の05:00(UTC)に作成
南/南西の風 5kt
気温 26°C
湿度 89%
気圧 1013 hPa
視程10km以上
1,500メートル以下は雲なし、積乱雲なし

METAR: DRRN 200500Z 21005KT CAVOK 26/24 Q1013 NOSIG

時間: 06:56 (05:56 UTC)

予報

当レポートは56分前の05:00(UTC)に作成
予報は20日の 06時(UTC)から 21日の 12時(UTC)まで有効
西/南西の風 8kt
視程10km以上
高度3000ftの雲はほとんどない
確率 40% :
20日の 12時(UTC)から 20日の 18時(UTC)まで一時的に
の風 25kt、最大35ktの突風を伴う
視程: 1200m
高度1600ftの千切れ雲あり
高度2600ftの雲は散在している, 積乱雲.
激しい雷雨, 雨

TAF: DRRN 200500Z 2006/2112 24008KT 9999 FEW030 PROB40 TEMPO 2012/2018 09025G35KT 1200 TSRA BKN016 SCT026CB

4,000以上の空港の気象観測と天気予報(METAR報とTAF報)

利用可能な観測所は地図上に黄色い丸と赤い丸で示す。

丸の上にカーソルを重ねると観測所名を参照できる。

次にクリックすると気象観測と天気予報を参照できる。

マップの切り替え:黒色「×」印の緑ボタンをクリックして拡大、「-」印の緑ボタンをクリックして縮小、緑色の三角印をクリックして隣りの地図に切り替え


METAR-TAF: